sensor_id;sensor_type;location;lat;lon;timestamp;pressure;altitude;pressure_sealevel;temperature;humidity
50065;BME280;35951;47.848;-122.338;2022-09-17T00:01:24;101507.55;;;16.40;100.00
50065;BME280;35951;47.848;-122.338;2022-09-17T00:03:56;101506.23;;;16.39;100.00
50065;BME280;35951;47.848;-122.338;2022-09-17T00:06:26;101511.51;;;16.37;100.00
50065;BME280;35951;47.848;-122.338;2022-09-17T00:08:54;101507.57;;;16.36;100.00
50065;BME280;35951;47.848;-122.338;2022-09-17T00:11:28;101507.57;;;16.36;100.00
50065;BME280;35951;47.848;-122.338;2022-09-17T00:13:58;101507.98;;;16.35;100.00
50065;BME280;35951;47.848;-122.338;2022-09-17T00:16:36;101504.50;;;16.35;100.00
50065;BME280;35951;47.848;-122.338;2022-09-17T00:19:02;101506.26;;;16.36;100.00
50065;BME280;35951;47.848;-122.338;2022-09-17T00:21:31;101503.64;;;16.37;100.00
50065;BME280;35951;47.848;-122.338;2022-09-17T00:24:00;101501.42;;;16.35;100.00
50065;BME280;35951;47.848;-122.338;2022-09-17T00:26:30;101500.58;;;16.38;100.00
50065;BME280;35951;47.848;-122.338;2022-09-17T00:28:59;101495.30;;;16.41;100.00
50065;BME280;35951;47.848;-122.338;2022-09-17T00:31:28;101490.51;;;16.40;100.00
50065;BME280;35951;47.848;-122.338;2022-09-17T00:33:57;101490.97;;;16.43;100.00
50065;BME280;35951;47.848;-122.338;2022-09-17T00:36:24;101489.63;;;16.47;100.00
50065;BME280;35951;47.848;-122.338;2022-09-17T00:38:53;101486.58;;;16.51;100.00
50065;BME280;35951;47.848;-122.338;2022-09-17T00:41:23;101482.19;;;16.51;100.00
50065;BME280;35951;47.848;-122.338;2022-09-17T00:43:55;101483.52;;;16.55;100.00
50065;BME280;35951;47.848;-122.338;2022-09-17T00:46:41;101473.47;;;16.54;100.00
50065;BME280;35951;47.848;-122.338;2022-09-17T00:49:22;101479.14;;;16.58;100.00
50065;BME280;35951;47.848;-122.338;2022-09-17T00:52:03;101471.27;;;16.60;100.00
50065;BME280;35951;47.848;-122.338;2022-09-17T00:54:30;101473.45;;;16.62;100.00
50065;BME280;35951;47.848;-122.338;2022-09-17T00:56:58;101473.02;;;16.65;100.00
50065;BME280;35951;47.848;-122.338;2022-09-17T00:59:26;101475.64;;;16.67;100.00
50065;BME280;35951;47.848;-122.338;2022-09-17T01:01:54;101477.81;;;16.69;100.00
50065;BME280;35951;47.848;-122.338;2022-09-17T01:04:25;101474.33;;;16.68;100.00
50065;BME280;35951;47.848;-122.338;2022-09-17T01:16:11;101462.08;;;16.70;100.00
50065;BME280;35951;47.848;-122.338;2022-09-17T01:19:10;101460.77;;;16.70;100.00
50065;BME280;35951;47.848;-122.338;2022-09-17T01:21:55;101459.87;;;16.72;100.00
50065;BME280;35951;47.848;-122.338;2022-09-17T01:27:41;101459.45;;;16.72;100.00
50065;BME280;35951;47.848;-122.338;2022-09-17T01:40:03;101447.64;;;16.69;100.00
50065;BME280;35951;47.848;-122.338;2022-09-17T01:45:31;101442.84;;;16.65;100.00
50065;BME280;35951;47.848;-122.338;2022-09-17T01:48:22;101446.33;;;16.64;100.00
50065;BME280;35951;47.848;-122.338;2022-09-17T01:51:03;101445.04;;;16.61;100.00
50065;BME280;35951;47.848;-122.338;2022-09-17T01:53:56;101443.28;;;16.60;100.00
50065;BME280;35951;47.848;-122.338;2022-09-17T01:56:40;101437.17;;;16.58;100.00
50065;BME280;35951;47.848;-122.338;2022-09-17T01:59:28;101442.41;;;16.57;100.00
50065;BME280;35951;47.848;-122.338;2022-09-17T02:02:05;101432.81;;;16.54;100.00
50065;BME280;35951;47.848;-122.338;2022-09-17T02:04:45;101432.80;;;16.51;100.00
50065;BME280;35951;47.848;-122.338;2022-09-17T02:07:16;101428.44;;;16.45;100.00
50065;BME280;35951;47.848;-122.338;2022-09-17T02:09:50;101429.75;;;16.41;100.00
50065;BME280;35951;47.848;-122.338;2022-09-17T02:12:27;101423.66;;;16.34;100.00
50065;BME280;35951;47.848;-122.338;2022-09-17T02:14:57;101431.95;;;16.30;100.00
50065;BME280;35951;47.848;-122.338;2022-09-17T02:20:08;101430.65;;;16.20;100.00
50065;BME280;35951;47.848;-122.338;2022-09-17T02:22:49;101431.08;;;16.15;100.00
50065;BME280;35951;47.848;-122.338;2022-09-17T02:25:30;101432.41;;;16.08;100.00
50065;BME280;35951;47.848;-122.338;2022-09-17T02:28:18;101436.75;;;16.02;100.00
50065;BME280;35951;47.848;-122.338;2022-09-17T02:30:49;101432.83;;;15.96;100.00
50065;BME280;35951;47.848;-122.338;2022-09-17T02:33:17;101438.06;;;15.92;100.00
50065;BME280;35951;47.848;-122.338;2022-09-17T02:35:46;101438.05;;;15.91;100.00
50065;BME280;35951;47.848;-122.338;2022-09-17T02:38:26;101443.73;;;15.89;100.00
50065;BME280;35951;47.848;-122.338;2022-09-17T02:40:53;101448.97;;;15.89;100.00
50065;BME280;35951;47.848;-122.338;2022-09-17T02:44:15;101442.87;;;15.88;100.00
50065;BME280;35951;47.848;-122.338;2022-09-17T02:52:13;101445.02;;;15.84;100.00
50065;BME280;35951;47.848;-122.338;2022-09-17T02:54:48;101435.86;;;15.80;100.00
50065;BME280;35951;47.848;-122.338;2022-09-17T02:57:41;101435.84;;;15.75;100.00
50065;BME280;35951;47.848;-122.338;2022-09-17T03:00:25;101438.44;;;15.72;100.00
50065;BME280;35951;47.848;-122.338;2022-09-17T03:05:44;101444.55;;;15.66;100.00
50065;BME280;35951;47.848;-122.338;2022-09-17T03:08:13;101453.28;;;15.68;100.00
50065;BME280;35951;47.848;-122.338;2022-09-17T03:10:44;101450.20;;;15.67;100.00
50065;BME280;35951;47.848;-122.338;2022-09-17T03:13:12;101448.03;;;15.67;100.00
50065;BME280;35951;47.848;-122.338;2022-09-17T03:15:39;101448.03;;;15.67;100.00
50065;BME280;35951;47.848;-122.338;2022-09-17T03:18:07;101447.58;;;15.66;100.00
50065;BME280;35951;47.848;-122.338;2022-09-17T03:20:35;101447.58;;;15.66;100.00
50065;BME280;35951;47.848;-122.338;2022-09-17T03:23:03;101444.09;;;15.65;100.00
50065;BME280;35951;47.848;-122.338;2022-09-17T03:25:31;101443.64;;;15.64;100.00
50065;BME280;35951;47.848;-122.338;2022-09-17T03:27:59;101441.92;;;15.65;100.00
50065;BME280;35951;47.848;-122.338;2022-09-17T03:30:27;101442.79;;;15.67;100.00
50065;BME280;35951;47.848;-122.338;2022-09-17T03:32:55;101442.79;;;15.67;100.00
50065;BME280;35951;47.848;-122.338;2022-09-17T03:35:23;101439.72;;;15.66;100.00
50065;BME280;35951;47.848;-122.338;2022-09-17T03:37:51;101445.39;;;15.64;100.00
50065;BME280;35951;47.848;-122.338;2022-09-17T03:40:19;101446.28;;;15.63;100.00
50065;BME280;35951;47.848;-122.338;2022-09-17T03:42:47;101442.75;;;15.61;100.00
50065;BME280;35951;47.848;-122.338;2022-09-17T03:45:15;101442.33;;;15.58;100.00
50065;BME280;35951;47.848;-122.338;2022-09-17T03:47:43;101441.89;;;15.55;100.00
50065;BME280;35951;47.848;-122.338;2022-09-17T03:50:11;101443.64;;;15.53;100.00
50065;BME280;35951;47.848;-122.338;2022-09-17T03:52:39;101446.67;;;15.53;100.00
50065;BME280;35951;47.848;-122.338;2022-09-17T03:55:09;101451.03;;;15.51;100.00
50065;BME280;35951;47.848;-122.338;2022-09-17T03:57:37;101451.02;;;15.48;100.00
50065;BME280;35951;47.848;-122.338;2022-09-17T04:00:05;101455.39;;;15.47;100.00
50065;BME280;35951;47.848;-122.338;2022-09-17T04:02:33;101453.20;;;15.45;100.00
50065;BME280;35951;47.848;-122.338;2022-09-17T04:05:01;101447.97;;;15.45;100.00
50065;BME280;35951;47.848;-122.338;2022-09-17T04:07:29;101452.76;;;15.46;100.00
50065;BME280;35951;47.848;-122.338;2022-09-17T04:09:56;101454.52;;;15.47;100.00
50065;BME280;35951;47.848;-122.338;2022-09-17T04:12:24;101452.75;;;15.44;100.00
50065;BME280;35951;47.848;-122.338;2022-09-17T04:14:51;101451.02;;;15.43;100.00
50065;BME280;35951;47.848;-122.338;2022-09-17T04:17:19;101443.61;;;15.43;100.00
50065;BME280;35951;47.848;-122.338;2022-09-17T04:19:46;101451.88;;;15.42;100.00
50065;BME280;35951;47.848;-122.338;2022-09-17T04:22:14;101449.70;;;15.43;100.00
50065;BME280;35951;47.848;-122.338;2022-09-17T04:24:41;101447.09;;;15.43;100.00
50065;BME280;35951;47.848;-122.338;2022-09-17T04:27:09;101441.85;;;15.43;100.00
50065;BME280;35951;47.848;-122.338;2022-09-17T04:29:38;101440.97;;;15.46;100.00
50065;BME280;35951;47.848;-122.338;2022-09-17T04:32:06;101436.63;;;15.45;100.00
50065;BME280;35951;47.848;-122.338;2022-09-17T04:34:34;101434.88;;;15.47;100.00
50065;BME280;35951;47.848;-122.338;2022-09-17T04:37:03;101430.50;;;15.46;100.00
50065;BME280;35951;47.848;-122.338;2022-09-17T04:39:31;101431.82;;;15.43;100.00
50065;BME280;35951;47.848;-122.338;2022-09-17T04:41:59;101424.38;;;15.36;100.00
50065;BME280;35951;47.848;-122.338;2022-09-17T04:44:28;101425.27;;;15.41;100.00
50065;BME280;35951;47.848;-122.338;2022-09-17T04:46:56;101428.30;;;15.41;100.00
50065;BME280;35951;47.848;-122.338;2022-09-17T04:49:24;101431.79;;;15.38;100.00
50065;BME280;35951;47.848;-122.338;2022-09-17T04:51:53;101430.04;;;15.34;100.00
50065;BME280;35951;47.848;-122.338;2022-09-17T04:54:21;101419.55;;;15.31;100.00
50065;BME280;35951;47.848;-122.338;2022-09-17T04:56:49;101419.55;;;15.31;100.00
50065;BME280;35951;47.848;-122.338;2022-09-17T04:59:17;101416.06;;;15.30;100.00
50065;BME280;35951;47.848;-122.338;2022-09-17T05:01:45;101418.23;;;15.31;100.00
50065;BME280;35951;47.848;-122.338;2022-09-17T05:04:13;101409.96;;;15.30;100.00
50065;BME280;35951;47.848;-122.338;2022-09-17T05:06:41;101407.34;;;15.28;100.00
50065;BME280;35951;47.848;-122.338;2022-09-17T05:09:09;101406.89;;;15.29;100.00
50065;BME280;35951;47.848;-122.338;2022-09-17T05:11:37;101402.95;;;15.27;100.00
50065;BME280;35951;47.848;-122.338;2022-09-17T05:14:05;101395.55;;;15.27;100.00
50065;BME280;35951;47.848;-122.338;2022-09-17T05:16:32;101398.16;;;15.25;100.00
50065;BME280;35951;47.848;-122.338;2022-09-17T05:19:00;101395.11;;;15.23;100.00
50065;BME280;35951;47.848;-122.338;2022-09-17T05:21:28;101395.09;;;15.21;100.00
50065;BME280;35951;47.848;-122.338;2022-09-17T05:23:56;101392.02;;;15.20;100.00
50065;BME280;35951;47.848;-122.338;2022-09-17T05:26:26;101392.02;;;15.20;100.00
50065;BME280;35951;47.848;-122.338;2022-09-17T05:28:54;101385.06;;;15.19;100.00
50065;BME280;35951;47.848;-122.338;2022-09-17T05:31:22;101382.43;;;15.18;100.00
50065;BME280;35951;47.848;-122.338;2022-09-17T05:33:50;101384.59;;;15.16;100.00
50065;BME280;35951;47.848;-122.338;2022-09-17T05:36:17;101379.37;;;15.13;100.00
50065;BME280;35951;47.848;-122.338;2022-09-17T05:38:45;101378.91;;;15.11;100.00
50065;BME280;35951;47.848;-122.338;2022-09-17T05:41:13;101373.66;;;15.09;100.00
50065;BME280;35951;47.848;-122.338;2022-09-17T05:43:42;101374.09;;;15.06;100.00
50065;BME280;35951;47.848;-122.338;2022-09-17T05:46:09;101373.20;;;15.02;100.00
50065;BME280;35951;47.848;-122.338;2022-09-17T05:48:37;101371.88;;;15.01;100.00
50065;BME280;35951;47.848;-122.338;2022-09-17T05:51:05;101368.40;;;15.00;100.00
50065;BME280;35951;47.848;-122.338;2022-09-17T05:53:33;101366.22;;;15.00;100.00
50065;BME280;35951;47.848;-122.338;2022-09-17T05:56:01;101357.51;;;14.99;100.00
50065;BME280;35951;47.848;-122.338;2022-09-17T05:58:29;101360.97;;;14.96;100.00
50065;BME280;35951;47.848;-122.338;2022-09-17T06:00:59;101356.18;;;14.96;100.00
50065;BME280;35951;47.848;-122.338;2022-09-17T06:03:27;101353.55;;;14.93;100.00
50065;BME280;35951;47.848;-122.338;2022-09-17T06:05:57;101350.04;;;14.89;100.00
50065;BME280;35951;47.848;-122.338;2022-09-17T06:08:26;101345.22;;;14.86;100.00
50065;BME280;35951;47.848;-122.338;2022-09-17T06:10:54;101350.45;;;14.86;100.00
50065;BME280;35951;47.848;-122.338;2022-09-17T06:13:22;101341.29;;;14.84;100.00
50065;BME280;35951;47.848;-122.338;2022-09-17T06:15:51;101343.91;;;14.81;100.00
50065;BME280;35951;47.848;-122.338;2022-09-17T06:18:19;101344.78;;;14.82;100.00
50065;BME280;35951;47.848;-122.338;2022-09-17T06:21:01;101340.42;;;14.84;100.00
50065;BME280;35951;47.848;-122.338;2022-09-17T06:23:33;101336.50;;;14.84;100.00
50065;BME280;35951;47.848;-122.338;2022-09-17T06:26:02;101327.80;;;14.85;100.00
50065;BME280;35951;47.848;-122.338;2022-09-17T06:28:31;101330.83;;;14.84;100.00
50065;BME280;35951;47.848;-122.338;2022-09-17T06:31:02;101324.28;;;14.84;100.00
50065;BME280;35951;47.848;-122.338;2022-09-17T06:33:32;101323.00;;;14.83;100.00
50065;BME280;35951;47.848;-122.338;2022-09-17T06:36:03;101322.53;;;14.80;100.00
50065;BME280;35951;47.848;-122.338;2022-09-17T06:38:33;101324.70;;;14.76;100.00
50065;BME280;35951;47.848;-122.338;2022-09-17T06:41:01;101322.52;;;14.74;100.00
50065;BME280;35951;47.848;-122.338;2022-09-17T06:43:29;101319.89;;;14.72;100.00
50065;BME280;35951;47.848;-122.338;2022-09-17T06:45:59;101321.19;;;14.71;100.00
50065;BME280;35951;47.848;-122.338;2022-09-17T06:48:29;101318.56;;;14.69;100.00
50065;BME280;35951;47.848;-122.338;2022-09-17T06:51:03;101319.45;;;14.68;100.00
50065;BME280;35951;47.848;-122.338;2022-09-17T06:53:33;101317.70;;;14.69;100.00
50065;BME280;35951;47.848;-122.338;2022-09-17T06:56:02;101318.58;;;14.71;100.00
50065;BME280;35951;47.848;-122.338;2022-09-17T06:58:30;101316.41;;;14.72;100.00
50065;BME280;35951;47.848;-122.338;2022-09-17T07:03:37;101309.45;;;14.74;100.00
50065;BME280;35951;47.848;-122.338;2022-09-17T07:06:07;101313.78;;;14.69;100.00
50065;BME280;35951;47.848;-122.338;2022-09-17T07:08:36;101308.97;;;14.65;100.00
50065;BME280;35951;47.848;-122.338;2022-09-17T07:11:04;101302.00;;;14.63;100.00
50065;BME280;35951;47.848;-122.338;2022-09-17T07:13:33;101300.67;;;14.61;100.00
50065;BME280;35951;47.848;-122.338;2022-09-17T07:16:02;101303.28;;;14.59;100.00
50065;BME280;35951;47.848;-122.338;2022-09-17T07:18:31;101302.41;;;14.57;100.00
50065;BME280;35951;47.848;-122.338;2022-09-17T07:21:01;101301.52;;;14.58;100.00
50065;BME280;35951;47.848;-122.338;2022-09-17T07:23:31;101299.36;;;14.59;100.00
50065;BME280;35951;47.848;-122.338;2022-09-17T07:26:02;101293.27;;;14.59;100.00
50065;BME280;35951;47.848;-122.338;2022-09-17T07:28:31;101290.64;;;14.59;100.00
50065;BME280;35951;47.848;-122.338;2022-09-17T07:31:03;101288.02;;;14.57;100.00
50065;BME280;35951;47.848;-122.338;2022-09-17T07:33:32;101294.52;;;14.56;100.00
50065;BME280;35951;47.848;-122.338;2022-09-17T07:36:03;101280.97;;;14.53;100.00
50065;BME280;35951;47.848;-122.338;2022-09-17T07:38:35;101280.11;;;14.53;100.00
50065;BME280;35951;47.848;-122.338;2022-09-17T07:41:06;101285.80;;;14.54;100.00
50065;BME280;35951;47.848;-122.338;2022-09-17T07:43:39;101287.51;;;14.53;100.00
50065;BME280;35951;47.848;-122.338;2022-09-17T07:46:09;101286.20;;;14.53;100.00
50065;BME280;35951;47.848;-122.338;2022-09-17T07:48:41;101275.32;;;14.52;100.00
50065;BME280;35951;47.848;-122.338;2022-09-17T07:51:16;101275.73;;;14.49;100.00
50065;BME280;35951;47.848;-122.338;2022-09-17T07:53:45;101267.03;;;14.48;100.00
50065;BME280;35951;47.848;-122.338;2022-09-17T07:56:14;101263.11;;;14.48;100.00
50065;BME280;35951;47.848;-122.338;2022-09-17T07:58:42;101269.20;;;14.49;100.00
50065;BME280;35951;47.848;-122.338;2022-09-17T08:01:11;101269.64;;;14.48;100.00
50065;BME280;35951;47.848;-122.338;2022-09-17T08:03:42;101265.71;;;14.47;100.00
50065;BME280;35951;47.848;-122.338;2022-09-17T08:06:13;101270.06;;;14.48;100.00
50065;BME280;35951;47.848;-122.338;2022-09-17T08:08:41;101270.06;;;14.48;100.00
50065;BME280;35951;47.848;-122.338;2022-09-17T08:11:11;101267.44;;;14.48;100.00
50065;BME280;35951;47.848;-122.338;2022-09-17T08:13:41;101262.21;;;14.48;100.00
50065;BME280;35951;47.848;-122.338;2022-09-17T08:16:10;101264.39;;;14.45;100.00
50065;BME280;35951;47.848;-122.338;2022-09-17T08:18:42;101264.37;;;14.44;100.00
50065;BME280;35951;47.848;-122.338;2022-09-17T08:21:12;101263.94;;;14.44;100.00
50065;BME280;35951;47.848;-122.338;2022-09-17T08:23:43;101260.02;;;14.44;100.00
50065;BME280;35951;47.848;-122.338;2022-09-17T08:26:14;101257.41;;;14.44;100.00
50065;BME280;35951;47.848;-122.338;2022-09-17T08:28:47;101254.37;;;14.45;100.00
50065;BME280;35951;47.848;-122.338;2022-09-17T08:31:17;101261.33;;;14.44;100.00
50065;BME280;35951;47.848;-122.338;2022-09-17T08:33:46;101254.81;;;14.43;100.00
50065;BME280;35951;47.848;-122.338;2022-09-17T08:36:15;101252.61;;;14.42;100.00
50065;BME280;35951;47.848;-122.338;2022-09-17T08:38:44;101255.20;;;14.40;100.00
50065;BME280;35951;47.848;-122.338;2022-09-17T08:44:22;101256.11;;;14.41;100.00
50065;BME280;35951;47.848;-122.338;2022-09-17T08:47:12;101256.52;;;14.40;100.00
50065;BME280;35951;47.848;-122.338;2022-09-17T08:49:59;101252.19;;;14.41;100.00
50065;BME280;35951;47.848;-122.338;2022-09-17T08:53:03;101251.74;;;14.42;100.00
50065;BME280;35951;47.848;-122.338;2022-09-17T09:07:11;101240.44;;;14.43;100.00
50065;BME280;35951;47.848;-122.338;2022-09-17T09:10:00;101234.30;;;14.42;100.00
50065;BME280;35951;47.848;-122.338;2022-09-17T09:12:28;101228.66;;;14.41;100.00
50065;BME280;35951;47.848;-122.338;2022-09-17T09:15:14;101231.27;;;14.41;100.00
50065;BME280;35951;47.848;-122.338;2022-09-17T09:17:37;101224.72;;;14.39;100.00
50065;BME280;35951;47.848;-122.338;2022-09-17T09:20:19;101220.34;;;14.38;100.00
50065;BME280;35951;47.848;-122.338;2022-09-17T09:22:50;101223.41;;;14.38;100.00
50065;BME280;35951;47.848;-122.338;2022-09-17T09:25:25;101220.80;;;14.39;100.00
50065;BME280;35951;47.848;-122.338;2022-09-17T09:33:35;101214.26;;;14.38;100.00
50065;BME280;35951;47.848;-122.338;2022-09-17T09:36:07;101215.13;;;14.35;100.00
50065;BME280;35951;47.848;-122.338;2022-09-17T09:38:39;101210.30;;;14.33;100.00
50065;BME280;35951;47.848;-122.338;2022-09-17T09:41:13;101210.75;;;14.33;100.00
50065;BME280;35951;47.848;-122.338;2022-09-17T09:43:50;101208.12;;;14.31;100.00
50065;BME280;35951;47.848;-122.338;2022-09-17T09:47:09;101202.89;;;14.31;100.00
50065;BME280;35951;47.848;-122.338;2022-09-17T10:00:41;101197.66;;;14.27;100.00
50065;BME280;35951;47.848;-122.338;2022-09-17T10:03:20;101196.36;;;14.27;100.00
50065;BME280;35951;47.848;-122.338;2022-09-17T10:06:03;101194.59;;;14.26;100.00
50065;BME280;35951;47.848;-122.338;2022-09-17T10:08:39;101191.12;;;14.25;100.00
50065;BME280;35951;47.848;-122.338;2022-09-17T10:13:48;101189.36;;;14.24;100.00
50065;BME280;35951;47.848;-122.338;2022-09-17T10:16:18;101192.41;;;14.19;100.00
50065;BME280;35951;47.848;-122.338;2022-09-17T10:18:47;101184.55;;;14.16;100.00
50065;BME280;35951;47.848;-122.338;2022-09-17T10:21:21;101190.61;;;14.09;100.00
50065;BME280;35951;47.848;-122.338;2022-09-17T10:23:51;101186.23;;;14.03;100.00
50065;BME280;35951;47.848;-122.338;2022-09-17T10:26:24;101191.86;;;13.98;100.00
50065;BME280;35951;47.848;-122.338;2022-09-17T10:29:10;101191.84;;;13.96;100.00
50065;BME280;35951;47.848;-122.338;2022-09-17T10:31:49;101190.54;;;13.96;100.00
50065;BME280;35951;47.848;-122.338;2022-09-17T10:34:26;101180.96;;;13.94;100.00
50065;BME280;35951;47.848;-122.338;2022-09-17T10:36:55;101177.45;;;13.93;100.00
50065;BME280;35951;47.848;-122.338;2022-09-17T10:39:29;101171.36;;;13.93;100.00
50065;BME280;35951;47.848;-122.338;2022-09-17T10:42:13;101169.19;;;13.92;100.00
50065;BME280;35951;47.848;-122.338;2022-09-17T10:44:53;101166.13;;;13.91;100.00
50065;BME280;35951;47.848;-122.338;2022-09-17T10:52:50;101156.99;;;13.88;100.00
50065;BME280;35951;47.848;-122.338;2022-09-17T10:55:37;101153.48;;;13.85;100.00
50065;BME280;35951;47.848;-122.338;2022-09-17T11:04:20;101149.00;;;13.63;100.00
50065;BME280;35951;47.848;-122.338;2022-09-17T11:07:16;101152.00;;;13.57;100.00
50065;BME280;35951;47.848;-122.338;2022-09-17T11:21:26;101145.34;;;13.34;100.00
50065;BME280;35951;47.848;-122.338;2022-09-17T11:30:19;101149.98;;;13.19;100.00
50065;BME280;35951;47.848;-122.338;2022-09-17T11:35:47;101146.83;;;13.07;100.00
50065;BME280;35951;47.848;-122.338;2022-09-17T11:38:20;101141.15;;;13.06;100.00
50065;BME280;35951;47.848;-122.338;2022-09-17T11:43:36;101136.38;;;13.02;100.00
50065;BME280;35951;47.848;-122.338;2022-09-17T11:46:15;101137.64;;;12.99;100.00
50065;BME280;35951;47.848;-122.338;2022-09-17T11:51:45;101141.53;;;12.98;100.00
50065;BME280;35951;47.848;-122.338;2022-09-17T11:54:36;101141.97;;;12.97;100.00
50065;BME280;35951;47.848;-122.338;2022-09-17T11:57:24;101139.33;;;12.94;100.00
50065;BME280;35951;47.848;-122.338;2022-09-17T12:00:12;101139.75;;;12.92;100.00
50065;BME280;35951;47.848;-122.338;2022-09-17T12:03:03;101142.32;;;12.89;100.00
50065;BME280;35951;47.848;-122.338;2022-09-17T12:05:51;101135.77;;;12.86;100.00
50065;BME280;35951;47.848;-122.338;2022-09-17T12:08:26;101132.67;;;12.80;100.00
50065;BME280;35951;47.848;-122.338;2022-09-17T12:11:01;101127.45;;;12.77;100.00
50065;BME280;35951;47.848;-122.338;2022-09-17T12:13:39;101126.11;;;12.74;100.00
50065;BME280;35951;47.848;-122.338;2022-09-17T12:16:27;101125.64;;;12.70;100.00
50065;BME280;35951;47.848;-122.338;2022-09-17T12:19:41;101124.28;;;12.65;100.00
50065;BME280;35951;47.848;-122.338;2022-09-17T12:22:19;101123.81;;;12.61;100.00
50065;BME280;35951;47.848;-122.338;2022-09-17T12:24:49;101127.69;;;12.58;100.00
50065;BME280;35951;47.848;-122.338;2022-09-17T12:38:52;101114.95;;;12.45;100.00
50065;BME280;35951;47.848;-122.338;2022-09-17T12:42:04;101111.91;;;12.46;100.00
50065;BME280;35951;47.848;-122.338;2022-09-17T12:44:42;101114.11;;;12.46;100.00
50065;BME280;35951;47.848;-122.338;2022-09-17T12:53:28;101115.37;;;12.43;100.00
50065;BME280;35951;47.848;-122.338;2022-09-17T12:59:12;101106.25;;;12.43;100.00
50065;BME280;35951;47.848;-122.338;2022-09-17T13:02:09;101104.95;;;12.43;100.00
50065;BME280;35951;47.848;-122.338;2022-09-17T13:04:58;101101.90;;;12.41;100.00
50065;BME280;35951;47.848;-122.338;2022-09-17T13:13:23;101102.27;;;12.36;100.00
50065;BME280;35951;47.848;-122.338;2022-09-17T13:16:16;101100.97;;;12.36;100.00
50065;BME280;35951;47.848;-122.338;2022-09-17T13:19:03;101105.30;;;12.34;100.00
50065;BME280;35951;47.848;-122.338;2022-09-17T13:21:51;101108.72;;;12.31;100.00
50065;BME280;35951;47.848;-122.338;2022-09-17T13:24:29;101100.02;;;12.29;100.00
50065;BME280;35951;47.848;-122.338;2022-09-17T13:26:58;101103.45;;;12.25;100.00
50065;BME280;35951;47.848;-122.338;2022-09-17T13:37:44;101095.59;;;12.19;100.00
50065;BME280;35951;47.848;-122.338;2022-09-17T13:40:34;101097.27;;;12.17;100.00
50065;BME280;35951;47.848;-122.338;2022-09-17T13:48:30;101099.89;;;12.15;100.00
50065;BME280;35951;47.848;-122.338;2022-09-17T13:54:02;101102.49;;;12.15;100.00
50065;BME280;35951;47.848;-122.338;2022-09-17T13:59:09;101107.63;;;12.10;100.00
50065;BME280;35951;47.848;-122.338;2022-09-17T14:04:47;101104.12;;;12.07;100.00
50065;BME280;35951;47.848;-122.338;2022-09-17T14:12:54;101102.34;;;12.03;100.00
50065;BME280;35951;47.848;-122.338;2022-09-17T14:18:33;101101.02;;;12.01;100.00
50065;BME280;35951;47.848;-122.338;2022-09-17T14:23:49;101094.93;;;12.02;100.00
50065;BME280;35951;47.848;-122.338;2022-09-17T14:29:23;101093.67;;;12.05;100.00
50065;BME280;35951;47.848;-122.338;2022-09-17T14:31:56;101093.28;;;12.09;100.00
50065;BME280;35951;47.848;-122.338;2022-09-17T14:34:26;101089.40;;;12.10;100.00
50065;BME280;35951;47.848;-122.338;2022-09-17T14:36:55;101086.84;;;12.14;100.00
50065;BME280;35951;47.848;-122.338;2022-09-17T14:39:26;101082.50;;;12.14;100.00
50065;BME280;35951;47.848;-122.338;2022-09-17T14:41:55;101082.05;;;12.15;100.00
50065;BME280;35951;47.848;-122.338;2022-09-17T14:44:24;101079.91;;;12.16;100.00
50065;BME280;35951;47.848;-122.338;2022-09-17T14:47:00;101080.80;;;12.18;100.00
50065;BME280;35951;47.848;-122.338;2022-09-17T14:49:34;101083.42;;;12.19;100.00
50065;BME280;35951;47.848;-122.338;2022-09-17T14:55:09;101076.13;;;12.29;100.00
50065;BME280;35951;47.848;-122.338;2022-09-17T14:57:56;101070.55;;;12.35;100.00
50065;BME280;35951;47.848;-122.338;2022-09-17T15:00:36;101073.23;;;12.41;100.00
50065;BME280;35951;47.848;-122.338;2022-09-17T15:03:04;101072.38;;;12.43;100.00
50065;BME280;35951;47.848;-122.338;2022-09-17T15:05:34;101068.53;;;12.48;100.00
50065;BME280;35951;47.848;-122.338;2022-09-17T15:08:06;101076.83;;;12.54;100.00
50065;BME280;35951;47.848;-122.338;2022-09-17T15:10:46;101075.13;;;12.60;100.00
50065;BME280;35951;47.848;-122.338;2022-09-17T15:13:18;101063.02;;;12.65;100.00
50065;BME280;35951;47.848;-122.338;2022-09-17T15:18:40;101057.50;;;12.80;100.00
50065;BME280;35951;47.848;-122.338;2022-09-17T15:24:40;101059.34;;;12.92;100.00
50065;BME280;35951;47.848;-122.338;2022-09-17T15:27:22;101063.27;;;12.96;100.00
50065;BME280;35951;47.848;-122.338;2022-09-17T15:30:08;101063.32;;;13.01;100.00
50065;BME280;35951;47.848;-122.338;2022-09-17T15:32:48;101061.16;;;13.03;100.00
50065;BME280;35951;47.848;-122.338;2022-09-17T15:35:28;101065.96;;;13.07;100.00
50065;BME280;35951;47.848;-122.338;2022-09-17T15:38:03;101057.73;;;13.11;100.00
50065;BME280;35951;47.848;-122.338;2022-09-17T15:40:50;101056.47;;;13.15;100.00
50065;BME280;35951;47.848;-122.338;2022-09-17T15:43:29;101051.27;;;13.20;100.00
50065;BME280;35951;47.848;-122.338;2022-09-17T15:48:47;101052.61;;;13.28;100.00